Vanquish — PHCU — position and weather

sailwx.info

Track history (hours):
 
Tides and Currents Weather Stations Pressure Air Temp Water Temp Dewpoint Dewpoint Depression Visibility Wind Speed Wind Dir Waves Ship Positions

Vanquish

Last reported at 2016-Jun-27 01:33 UTC. Time now 2016-Jun-27 02:22 UTC.
Position N 54°33' E 018°30'.

MMSI: 246138952.

Date/timePositionNaut miles runAvg speedWind from/ knotsBaromVisibWave heightAir tempDewpointWater temp
2016-Jun-27 01:33N 54°33' E 018°30'0 0.0
2016-Jun-27 00:33N 54°33' E 018°30'0 0.0
2016-Jun-26 23:33N 54°33' E 018°30'0 0.0
2016-Jun-26 22:33N 54°33' E 018°30'0 0.0
2016-Jun-26 21:33N 54°33' E 018°30'0 0.0
2016-Jun-26 20:33N 54°33' E 018°30'0 0.0
2016-Jun-26 19:33N 54°33' E 018°30'0 0.0
2016-Jun-26 18:33N 54°33' E 018°30'0 0.0
2016-Jun-26 17:33N 54°33' E 018°30'0 0.0
2016-Jun-26 16:33N 54°33' E 018°30'0 0.0
2016-Jun-26 15:33N 54°33' E 018°30'0 0.0
2016-Jun-26 14:33N 54°33' E 018°31'0 0.0
2016-Jun-26 13:33N 54°33' E 018°30'0 0.0
2016-Jun-26 12:33N 54°33' E 018°30'0 0.0
2016-Jun-26 11:33N 54°33' E 018°30'0 0.0
2016-Jun-26 10:33N 54°33' E 018°30'0 0.0
2016-Jun-26 09:33N 54°33' E 018°30'0 0.0
2016-Jun-26 08:33N 54°33' E 018°30'0 0.0
2016-Jun-26 07:33N 54°33' E 018°31'0 0.0
2016-Jun-26 06:33N 54°33' E 018°30'4 3.8
2016-Jun-26 05:33N 54°32' E 018°37'8 8.1
2016-Jun-26 04:33N 54°34' E 018°51'1111.3
2016-Jun-26 03:33N 54°44' E 018°58'1010.0
2016-Jun-26 02:33N 54°51' E 018°45'1010.2
2016-Jun-26 01:33N 54°57' E 018°31'1010.5
2016-Jun-26 00:33N 54°56' E 018°13'1010.4
2016-Jun-25 23:33N 54°55' E 017°55'1010.5
2016-Jun-25 22:33N 54°54' E 017°37'5510.6
2016-Jun-25 17:20N 54°45' E 016°02'1910.7
2016-Jun-25 15:33N 54°41' E 015°29'3310.3
2016-Jun-25 12:23N 54°36' E 014°33'1110.2
2016-Jun-25 11:21N 54°37' E 014°15'1110.4
2016-Jun-25 10:19N 54°44' E 014°01'910.3
2016-Jun-25 09:29N 54°49' E 013°49'1010.4
2016-Jun-25 08:33N 54°55' E 013°36'1210.3
2016-Jun-25 07:24N 55°02' E 013°20'910.6
2016-Jun-25 06:33N 55°07' E 013°06'1110.6
2016-Jun-25 05:33N 55°10' E 012°48'9 9.3
2016-Jun-25 04:33N 55°16' E 012°37'1110.9
2016-Jun-25 03:33N 55°27' E 012°40'1010.5
2016-Jun-25 02:33N 55°38' E 012°42'1010.4
2016-Jun-25 01:33N 55°48' E 012°40'1010.0
2016-Jun-25 00:33N 55°58' E 012°40'9 8.8
2016-Jun-24 23:33N 56°06' E 012°33'10 9.7
2016-Jun-24 22:33N 56°11' E 012°19'2010.0
2016-Jun-24 20:33N 56°28' E 011°59'1110.8
2016-Jun-24 19:33N 56°39' E 011°55'1110.6
2016-Jun-24 18:31N 56°49' E 011°49'1110.9
2016-Jun-24 17:33N 56°59' E 011°43'1110.8
2016-Jun-24 16:32N 57°09' E 011°36'1010.1
2016-Jun-24 15:33N 57°19' E 011°30'10 9.6
2016-Jun-24 14:33N 57°27' E 011°23'10 9.9
2016-Jun-24 13:33N 57°35' E 011°10'9 9.3
2016-Jun-24 12:33N 57°41' E 010°56'9 9.3
2016-Jun-24 11:33N 57°47' E 010°43'1010.6
2016-Jun-24 10:33N 57°45' E 010°24'1110.5
2016-Jun-24 09:29N 57°42' E 010°04'16610.4
2016-Jun-23 17:33N 55°37' E 006°43'8311.6
2016-Jun-23 10:25N 54°26' E 005°27'1412.4
2016-Jun-23 09:16N 54°14' E 005°15'1013.3
2016-Jun-23 08:33N 54°06' E 005°07'1515.3
2016-Jun-23 07:33N 53°51' E 004°59'4816.2
2016-Jun-23 04:33N 53°06' E 004°27'1616.1
2016-Jun-23 03:33N 52°52' E 004°15'1615.7
2016-Jun-23 02:33N 52°39' E 004°01'1514.6
2016-Jun-23 01:33N 52°25' E 003°53'1414.2
2016-Jun-23 00:33N 52°11' E 003°54'1211.6
2016-Jun-22 23:33N 52°00' E 004°01'1413.7
2016-Jun-22 22:33N 51°54' E 004°21'3 2.8
2016-Jun-22 21:31N 51°53' E 004°25'0 0.0
2016-Jun-22 20:31N 51°53' E 004°25'0 0.0
2016-Jun-22 19:31N 51°53' E 004°25'0 0.0
2016-Jun-22 18:31N 51°53' E 004°25'0 0.0
2016-Jun-22 17:31N 51°53' E 004°25'0 0.0
2016-Jun-22 16:31N 51°53' E 004°25'0 0.0
2016-Jun-22 15:31N 51°53' E 004°25'0 0.2
2016-Jun-22 14:34N 51°53' E 004°25'9 8.6
2016-Jun-22 13:33N 51°56' E 004°12'8 7.7
2016-Jun-22 12:33N 51°58' E 003°60'1 0.8
2016-Jun-22 11:33N 51°57' E 003°60'0 0.0
2016-Jun-22 10:33N 51°57' E 003°60'0 0.0
2016-Jun-22 09:33N 51°57' E 003°60'0 0.0
2016-Jun-22 08:33N 51°57' E 003°60'0 0.0
2016-Jun-22 07:33N 51°57' E 003°60'0 0.0
2016-Jun-22 06:33N 51°57' E 003°60'0 0.0
2016-Jun-22 05:33N 51°57' E 003°60'0 0.0
2016-Jun-22 04:33N 51°57' E 003°60'0 0.0
2016-Jun-22 03:33N 51°57' E 003°60'0 0.0
2016-Jun-22 02:33N 51°57' E 003°60'0 0.0
2016-Jun-22 01:33N 51°57' E 003°60'0 0.0
2016-Jun-22 00:33N 51°57' E 003°60'0 0.0
2016-Jun-21 23:30N 51°57' E 003°60'0 0.0
2016-Jun-21 22:33N 51°57' E 003°60'0 0.0
2016-Jun-21 21:33N 51°57' E 003°60'0 0.0
2016-Jun-21 20:33N 51°57' E 003°60'0 0.0
2016-Jun-21 19:33N 51°57' E 003°60'0 0.0
2016-Jun-21 18:33N 51°57' E 003°60'0 0.0
2016-Jun-21 17:33N 51°57' E 003°60'0 0.0
2016-Jun-21 16:33N 51°57' E 003°60'0 0.0
2016-Jun-21 15:33N 51°57' E 003°60'0 0.0
2016-Jun-21 14:30N 51°57' E 003°60'0 0.0
2016-Jun-21 13:33N 51°57' E 003°60'0 0.0
2016-Jun-21 12:33N 51°57' E 003°60'0 0.0
2016-Jun-21 11:33N 51°57' E 003°60'0 0.0
2016-Jun-21 10:33N 51°57' E 003°60'0 0.0
2016-Jun-21 09:33N 51°57' E 003°60'0 0.0
2016-Jun-21 08:33N 51°57' E 003°60'0 0.0
2016-Jun-21 07:33N 51°57' E 003°60'0 0.0
2016-Jun-21 06:33N 51°57' E 003°60'0 0.0
2016-Jun-21 04:33N 51°57' E 003°60'0 0.0
2016-Jun-21 03:33N 51°57' E 003°60'0 0.0
2016-Jun-21 02:33N 51°57' E 003°60'0 0.0
2016-Jun-21 01:33N 51°57' E 003°60'0 0.0
2016-Jun-21 00:33N 51°57' E 003°60'0 0.0
2016-Jun-20 23:33N 51°57' E 003°60'0 0.0
2016-Jun-20 22:33N 51°57' E 003°60'0 0.0
2016-Jun-20 21:33N 51°57' E 003°60'0 0.0
2016-Jun-20 20:33N 51°57' E 003°60'0 0.0
2016-Jun-20 19:33N 51°57' E 003°60'0 0.0
2016-Jun-20 18:33N 51°57' E 003°60'0 0.0
2016-Jun-20 17:33N 51°57' E 003°60'0 0.0
2016-Jun-20 16:33N 51°57' E 003°60'0 0.0
2016-Jun-20 15:33N 51°57' E 003°60'0 0.0
2016-Jun-20 14:33N 51°57' E 003°60'0 0.0
2016-Jun-20 13:33N 51°57' E 003°60'0 0.0
2016-Jun-20 12:30N 51°57' E 003°60'0 0.0
2016-Jun-20 11:33N 51°57' E 003°60'0 0.0
2016-Jun-20 10:33N 51°57' E 003°60'0 0.0
2016-Jun-20 09:33N 51°57' E 003°60'0 0.0
2016-Jun-20 08:33N 51°57' E 003°60'0 0.0
2016-Jun-20 07:33N 51°57' E 003°60'0 0.0
2016-Jun-20 06:33N 51°57' E 003°60'0 0.0
2016-Jun-20 05:33N 51°57' E 003°60'0 0.0
2016-Jun-20 04:33N 51°57' E 003°60'0 0.0
2016-Jun-20 03:33N 51°57' E 003°60'0 0.0
2016-Jun-20 02:33N 51°57' E 003°60'0 0.0
2016-Jun-20 01:33N 51°57' E 003°60'0 0.0
2016-Jun-20 00:33N 51°57' E 003°60'0 0.0
2016-Jun-19 23:33N 51°57' E 003°60'0 0.0
2016-Jun-19 22:33N 51°57' E 003°60'0 0.0
2016-Jun-19 21:33N 51°57' E 003°60'0 0.0
2016-Jun-19 20:33N 51°57' E 003°60'0 0.0
2016-Jun-19 19:33N 51°57' E 003°60'0 0.0
2016-Jun-19 18:33N 51°57' E 003°60'0 0.0
2016-Jun-19 17:33N 51°57' E 003°60'0 0.0
2016-Jun-19 16:33N 51°57' E 003°60'0 0.0
2016-Jun-19 15:33N 51°57' E 003°60'0 0.0
2016-Jun-19 14:33N 51°57' E 003°60'0 0.0
2016-Jun-19 13:32N 51°57' E 003°60'0 0.0
2016-Jun-19 12:33N 51°57' E 003°60'0 0.0
2016-Jun-19 11:32N 51°57' E 003°60'0 0.0
2016-Jun-19 10:32N 51°57' E 003°60'0 0.0
2016-Jun-19 09:33N 51°57' E 003°60'0 0.0
2016-Jun-19 08:32N 51°57' E 003°60'0 0.0
2016-Jun-19 07:32N 51°57' E 003°60'0 0.0
2016-Jun-19 06:32N 51°57' E 003°60'0 0.0
2016-Jun-19 05:33N 51°57' E 003°60'0 0.0
2016-Jun-19 04:33N 51°57' E 003°60'0 0.0
2016-Jun-19 03:33N 51°57' E 003°60'0 0.0
2016-Jun-19 02:33N 51°57' E 003°60'0 0.0
2016-Jun-19 01:29N 51°57' E 003°60'0 0.0
2016-Jun-19 00:32N 51°57' E 003°60'0 0.0
2016-Jun-18 23:32N 51°57' E 003°60'0 0.0
2016-Jun-18 22:32N 51°57' E 003°60'0 0.0
2016-Jun-18 21:32N 51°57' E 003°60'0 0.0
2016-Jun-18 20:29N 51°57' E 003°60'0 0.0
2016-Jun-18 19:29N 51°57' E 003°60'0 0.0
2016-Jun-18 18:32N 51°57' E 003°60'0 0.0
2016-Jun-18 17:32N 51°57' E 003°60'0 0.0
2016-Jun-18 16:32N 51°57' E 003°60'0 0.0
2016-Jun-18 15:32N 51°57' E 003°60'0 0.0
2016-Jun-18 14:32N 51°57' E 003°60'0 0.0
2016-Jun-18 13:32N 51°57' E 003°60'0 0.0
2016-Jun-18 12:33N 51°57' E 003°60'0 0.0
2016-Jun-18 11:32N 51°57' E 003°60'0 0.0
2016-Jun-18 10:32N 51°57' E 003°60'0 0.0
2016-Jun-18 09:32N 51°57' E 003°60'0 0.0
2016-Jun-18 08:29N 51°57' E 003°60'0 0.0
2016-Jun-18 07:32N 51°57' E 003°60'0 0.0
2016-Jun-18 06:32N 51°57' E 003°60'0 0.0
2016-Jun-18 05:29N 51°57' E 003°60'0 0.0
2016-Jun-18 04:29N 51°57' E 003°60'0 0.0
2016-Jun-18 03:32N 51°57' E 003°60'0 0.0
2016-Jun-18 02:32N 51°57' E 003°60'0 0.0
2016-Jun-18 01:32N 51°57' E 003°60'0 0.0
2016-Jun-18 00:32N 51°57' E 003°60'0 0.0
2016-Jun-17 23:32N 51°57' E 003°60'0 0.0
2016-Jun-17 22:29N 51°57' E 003°60'0 0.0
2016-Jun-17 21:32N 51°57' E 003°60'0 0.0
2016-Jun-17 20:32N 51°57' E 003°60'0 0.0
2016-Jun-17 19:32N 51°57' E 003°60'0 0.0
2016-Jun-17 18:32N 51°57' E 003°60'0 0.0
2016-Jun-17 17:32N 51°57' E 003°60'0 0.0
2016-Jun-17 16:32N 51°57' E 003°60'0 0.0
2016-Jun-17 15:32N 51°57' E 003°60'0 0.0
2016-Jun-17 14:32N 51°57' E 003°60'0 0.0
2016-Jun-17 13:32N 51°57' E 003°60'0 0.0
2016-Jun-17 12:32N 51°57' E 003°60'0 0.0
2016-Jun-17 11:32N 51°57' E 003°60'0 0.0
2016-Jun-17 10:32N 51°57' E 003°60'0 0.0
2016-Jun-17 09:32N 51°57' E 003°60'0 0.0
2016-Jun-17 08:32N 51°57' E 003°60'0 0.0
2016-Jun-17 07:32N 51°57' E 003°60'0 0.0
2016-Jun-17 06:32N 51°57' E 003°60'0 0.0
2016-Jun-17 05:32N 51°57' E 003°60'0 0.0
2016-Jun-17 04:29N 51°57' E 003°60'0 0.0
2016-Jun-17 03:32N 51°57' E 003°60'0 0.0
2016-Jun-17 02:32N 51°57' E 003°60'  
Track history (hours):
 
Tides and Currents Weather Stations Pressure Air Temp Water Temp Dewpoint Dewpoint Depression Visibility Wind Speed Wind Dir Waves Ship Positions

Vanquish

Last reported at 2016-Jun-27 01:33 UTC. Time now 2016-Jun-27 02:22 UTC.
Position N 54°33' E 018°30'.

MMSI: 246138952.

Date/timePositionNaut miles runAvg speedWind from/ knotsBaromVisibWave heightAir tempDewpointWater temp
2016-Jun-27 01:33N 54°33' E 018°30'0 0.0
2016-Jun-27 00:33N 54°33' E 018°30'0 0.0
2016-Jun-26 23:33N 54°33' E 018°30'0 0.0
2016-Jun-26 22:33N 54°33' E 018°30'0 0.0
2016-Jun-26 21:33N 54°33' E 018°30'0 0.0
2016-Jun-26 20:33N 54°33' E 018°30'0 0.0
2016-Jun-26 19:33N 54°33' E 018°30'0 0.0
2016-Jun-26 18:33N 54°33' E 018°30'0 0.0
2016-Jun-26 17:33N 54°33' E 018°30'0 0.0
2016-Jun-26 16:33N 54°33' E 018°30'0 0.0
2016-Jun-26 15:33N 54°33' E 018°30'0 0.0
2016-Jun-26 14:33N 54°33' E 018°31'0 0.0
2016-Jun-26 13:33N 54°33' E 018°30'0 0.0
2016-Jun-26 12:33N 54°33' E 018°30'0 0.0
2016-Jun-26 11:33N 54°33' E 018°30'0 0.0
2016-Jun-26 10:33N 54°33' E 018°30'0 0.0
2016-Jun-26 09:33N 54°33' E 018°30'0 0.0
2016-Jun-26 08:33N 54°33' E 018°30'0 0.0
2016-Jun-26 07:33N 54°33' E 018°31'0 0.0
2016-Jun-26 06:33N 54°33' E 018°30'4 3.8
2016-Jun-26 05:33N 54°32' E 018°37'8 8.1
2016-Jun-26 04:33N 54°34' E 018°51'1111.3
2016-Jun-26 03:33N 54°44' E 018°58'1010.0
2016-Jun-26 02:33N 54°51' E 018°45'1010.2
2016-Jun-26 01:33N 54°57' E 018°31'1010.5
2016-Jun-26 00:33N 54°56' E 018°13'1010.4
2016-Jun-25 23:33N 54°55' E 017°55'1010.5
2016-Jun-25 22:33N 54°54' E 017°37'5510.6
2016-Jun-25 17:20N 54°45' E 016°02'1910.7
2016-Jun-25 15:33N 54°41' E 015°29'3310.3
2016-Jun-25 12:23N 54°36' E 014°33'1110.2
2016-Jun-25 11:21N 54°37' E 014°15'1110.4
2016-Jun-25 10:19N 54°44' E 014°01'910.3
2016-Jun-25 09:29N 54°49' E 013°49'1010.4
2016-Jun-25 08:33N 54°55' E 013°36'1210.3
2016-Jun-25 07:24N 55°02' E 013°20'910.6
2016-Jun-25 06:33N 55°07' E 013°06'1110.6
2016-Jun-25 05:33N 55°10' E 012°48'9 9.3
2016-Jun-25 04:33N 55°16' E 012°37'1110.9
2016-Jun-25 03:33N 55°27' E 012°40'1010.5
2016-Jun-25 02:33N 55°38' E 012°42'1010.4
2016-Jun-25 01:33N 55°48' E 012°40'1010.0
2016-Jun-25 00:33N 55°58' E 012°40'9 8.8
2016-Jun-24 23:33N 56°06' E 012°33'10 9.7
2016-Jun-24 22:33N 56°11' E 012°19'2010.0
2016-Jun-24 20:33N 56°28' E 011°59'1110.8
2016-Jun-24 19:33N 56°39' E 011°55'1110.6
2016-Jun-24 18:31N 56°49' E 011°49'1110.9
2016-Jun-24 17:33N 56°59' E 011°43'1110.8
2016-Jun-24 16:32N 57°09' E 011°36'1010.1
2016-Jun-24 15:33N 57°19' E 011°30'10 9.6
2016-Jun-24 14:33N 57°27' E 011°23'10 9.9
2016-Jun-24 13:33N 57°35' E 011°10'9 9.3
2016-Jun-24 12:33N 57°41' E 010°56'9 9.3
2016-Jun-24 11:33N 57°47' E 010°43'1010.6
2016-Jun-24 10:33N 57°45' E 010°24'1110.5
2016-Jun-24 09:29N 57°42' E 010°04'16610.4
2016-Jun-23 17:33N 55°37' E 006°43'8311.6
2016-Jun-23 10:25N 54°26' E 005°27'1412.4
2016-Jun-23 09:16N 54°14' E 005°15'1013.3
2016-Jun-23 08:33N 54°06' E 005°07'1515.3
2016-Jun-23 07:33N 53°51' E 004°59'4816.2
2016-Jun-23 04:33N 53°06' E 004°27'1616.1
2016-Jun-23 03:33N 52°52' E 004°15'1615.7
2016-Jun-23 02:33N 52°39' E 004°01'1514.6
2016-Jun-23 01:33N 52°25' E 003°53'1414.2
2016-Jun-23 00:33N 52°11' E 003°54'1211.6
2016-Jun-22 23:33N 52°00' E 004°01'1413.7
2016-Jun-22 22:33N 51°54' E 004°21'3 2.8
2016-Jun-22 21:31N 51°53' E 004°25'0 0.0
2016-Jun-22 20:31N 51°53' E 004°25'0 0.0
2016-Jun-22 19:31N 51°53' E 004°25'0 0.0
2016-Jun-22 18:31N 51°53' E 004°25'0 0.0
2016-Jun-22 17:31N 51°53' E 004°25'0 0.0
2016-Jun-22 16:31N 51°53' E 004°25'0 0.0
2016-Jun-22 15:31N 51°53' E 004°25'0 0.2
2016-Jun-22 14:34N 51°53' E 004°25'9 8.6
2016-Jun-22 13:33N 51°56' E 004°12'8 7.7
2016-Jun-22 12:33N 51°58' E 003°60'1 0.8
2016-Jun-22 11:33N 51°57' E 003°60'0 0.0
2016-Jun-22 10:33N 51°57' E 003°60'0 0.0
2016-Jun-22 09:33N 51°57' E 003°60'0 0.0
2016-Jun-22 08:33N 51°57' E 003°60'0 0.0
2016-Jun-22 07:33N 51°57' E 003°60'0 0.0
2016-Jun-22 06:33N 51°57' E 003°60'0 0.0
2016-Jun-22 05:33N 51°57' E 003°60'0 0.0
2016-Jun-22 04:33N 51°57' E 003°60'0 0.0
2016-Jun-22 03:33N 51°57' E 003°60'0 0.0
2016-Jun-22 02:33N 51°57' E 003°60'0 0.0
2016-Jun-22 01:33N 51°57' E 003°60'0 0.0
2016-Jun-22 00:33N 51°57' E 003°60'0 0.0
2016-Jun-21 23:30N 51°57' E 003°60'0 0.0
2016-Jun-21 22:33N 51°57' E 003°60'0 0.0
2016-Jun-21 21:33N 51°57' E 003°60'0 0.0
2016-Jun-21 20:33N 51°57' E 003°60'0 0.0
2016-Jun-21 19:33N 51°57' E 003°60'0 0.0
2016-Jun-21 18:33N 51°57' E 003°60'0 0.0
2016-Jun-21 17:33N 51°57' E 003°60'0 0.0
2016-Jun-21 16:33N 51°57' E 003°60'0 0.0
2016-Jun-21 15:33N 51°57' E 003°60'0 0.0
2016-Jun-21 14:30N 51°57' E 003°60'0 0.0
2016-Jun-21 13:33N 51°57' E 003°60'0 0.0
2016-Jun-21 12:33N 51°57' E 003°60'0 0.0
2016-Jun-21 11:33N 51°57' E 003°60'0 0.0
2016-Jun-21 10:33N 51°57' E 003°60'0 0.0
2016-Jun-21 09:33N 51°57' E 003°60'0 0.0
2016-Jun-21 08:33N 51°57' E 003°60'0 0.0
2016-Jun-21 07:33N 51°57' E 003°60'0 0.0
2016-Jun-21 06:33N 51°57' E 003°60'0 0.0
2016-Jun-21 04:33N 51°57' E 003°60'0 0.0
2016-Jun-21 03:33N 51°57' E 003°60'0 0.0
2016-Jun-21 02:33N 51°57' E 003°60'0 0.0
2016-Jun-21 01:33N 51°57' E 003°60'0 0.0
2016-Jun-21 00:33N 51°57' E 003°60'0 0.0
2016-Jun-20 23:33N 51°57' E 003°60'0 0.0
2016-Jun-20 22:33N 51°57' E 003°60'0 0.0
2016-Jun-20 21:33N 51°57' E 003°60'0 0.0
2016-Jun-20 20:33N 51°57' E 003°60'0 0.0
2016-Jun-20 19:33N 51°57' E 003°60'0 0.0
2016-Jun-20 18:33N 51°57' E 003°60'0 0.0
2016-Jun-20 17:33N 51°57' E 003°60'0 0.0
2016-Jun-20 16:33N 51°57' E 003°60'0 0.0
2016-Jun-20 15:33N 51°57' E 003°60'0 0.0
2016-Jun-20 14:33N 51°57' E 003°60'0 0.0
2016-Jun-20 13:33N 51°57' E 003°60'0 0.0
2016-Jun-20 12:30N 51°57' E 003°60'0 0.0
2016-Jun-20 11:33N 51°57' E 003°60'0 0.0
2016-Jun-20 10:33N 51°57' E 003°60'0 0.0
2016-Jun-20 09:33N 51°57' E 003°60'0 0.0
2016-Jun-20 08:33N 51°57' E 003°60'0 0.0
2016-Jun-20 07:33N 51°57' E 003°60'0 0.0
2016-Jun-20 06:33N 51°57' E 003°60'0 0.0
2016-Jun-20 05:33N 51°57' E 003°60'0 0.0
2016-Jun-20 04:33N 51°57' E 003°60'0 0.0
2016-Jun-20 03:33N 51°57' E 003°60'0 0.0
2016-Jun-20 02:33N 51°57' E 003°60'0 0.0
2016-Jun-20 01:33N 51°57' E 003°60'0 0.0
2016-Jun-20 00:33N 51°57' E 003°60'0 0.0
2016-Jun-19 23:33N 51°57' E 003°60'0 0.0
2016-Jun-19 22:33N 51°57' E 003°60'0 0.0
2016-Jun-19 21:33N 51°57' E 003°60'0 0.0
2016-Jun-19 20:33N 51°57' E 003°60'0 0.0
2016-Jun-19 19:33N 51°57' E 003°60'0 0.0
2016-Jun-19 18:33N 51°57' E 003°60'0 0.0
2016-Jun-19 17:33N 51°57' E 003°60'0 0.0
2016-Jun-19 16:33N 51°57' E 003°60'0 0.0
2016-Jun-19 15:33N 51°57' E 003°60'0 0.0
2016-Jun-19 14:33N 51°57' E 003°60'0 0.0
2016-Jun-19 13:32N 51°57' E 003°60'0 0.0
2016-Jun-19 12:33N 51°57' E 003°60'0 0.0
2016-Jun-19 11:32N 51°57' E 003°60'0 0.0
2016-Jun-19 10:32N 51°57' E 003°60'0 0.0
2016-Jun-19 09:33N 51°57' E 003°60'0 0.0
2016-Jun-19 08:32N 51°57' E 003°60'0 0.0
2016-Jun-19 07:32N 51°57' E 003°60'0 0.0
2016-Jun-19 06:32N 51°57' E 003°60'0 0.0
2016-Jun-19 05:33N 51°57' E 003°60'0 0.0
2016-Jun-19 04:33N 51°57' E 003°60'0 0.0
2016-Jun-19 03:33N 51°57' E 003°60'0 0.0
2016-Jun-19 02:33N 51°57' E 003°60'0 0.0
2016-Jun-19 01:29N 51°57' E 003°60'0 0.0
2016-Jun-19 00:32N 51°57' E 003°60'0 0.0
2016-Jun-18 23:32N 51°57' E 003°60'0 0.0
2016-Jun-18 22:32N 51°57' E 003°60'0 0.0
2016-Jun-18 21:32N 51°57' E 003°60'0 0.0
2016-Jun-18 20:29N 51°57' E 003°60'0 0.0
2016-Jun-18 19:29N 51°57' E 003°60'0 0.0
2016-Jun-18 18:32N 51°57' E 003°60'0 0.0
2016-Jun-18 17:32N 51°57' E 003°60'0 0.0
2016-Jun-18 16:32N 51°57' E 003°60'0 0.0
2016-Jun-18 15:32N 51°57' E 003°60'0 0.0
2016-Jun-18 14:32N 51°57' E 003°60'0 0.0
2016-Jun-18 13:32N 51°57' E 003°60'0 0.0
2016-Jun-18 12:33N 51°57' E 003°60'0 0.0
2016-Jun-18 11:32N 51°57' E 003°60'0 0.0
2016-Jun-18 10:32N 51°57' E 003°60'0 0.0
2016-Jun-18 09:32N 51°57' E 003°60'0 0.0
2016-Jun-18 08:29N 51°57' E 003°60'0 0.0
2016-Jun-18 07:32N 51°57' E 003°60'0 0.0
2016-Jun-18 06:32N 51°57' E 003°60'0 0.0
2016-Jun-18 05:29N 51°57' E 003°60'0 0.0
2016-Jun-18 04:29N 51°57' E 003°60'0 0.0
2016-Jun-18 03:32N 51°57' E 003°60'0 0.0
2016-Jun-18 02:32N 51°57' E 003°60'0 0.0
2016-Jun-18 01:32N 51°57' E 003°60'0 0.0
2016-Jun-18 00:32N 51°57' E 003°60'0 0.0
2016-Jun-17 23:32N 51°57' E 003°60'0 0.0
2016-Jun-17 22:29N 51°57' E 003°60'0 0.0
2016-Jun-17 21:32N 51°57' E 003°60'0 0.0
2016-Jun-17 20:32N 51°57' E 003°60'0 0.0
2016-Jun-17 19:32N 51°57' E 003°60'0 0.0
2016-Jun-17 18:32N 51°57' E 003°60'0 0.0
2016-Jun-17 17:32N 51°57' E 003°60'0 0.0
2016-Jun-17 16:32N 51°57' E 003°60'0 0.0
2016-Jun-17 15:32N 51°57' E 003°60'0 0.0
2016-Jun-17 14:32N 51°57' E 003°60'0 0.0
2016-Jun-17 13:32N 51°57' E 003°60'0 0.0
2016-Jun-17 12:32N 51°57' E 003°60'0 0.0
2016-Jun-17 11:32N 51°57' E 003°60'0 0.0
2016-Jun-17 10:32N 51°57' E 003°60'0 0.0
2016-Jun-17 09:32N 51°57' E 003°60'0 0.0
2016-Jun-17 08:32N 51°57' E 003°60'0 0.0
2016-Jun-17 07:32N 51°57' E 003°60'0 0.0
2016-Jun-17 06:32N 51°57' E 003°60'0 0.0
2016-Jun-17 05:32N 51°57' E 003°60'0 0.0
2016-Jun-17 04:29N 51°57' E 003°60'0 0.0
2016-Jun-17 03:32N 51°57' E 003°60'0 0.0
2016-Jun-17 02:32N 51°57' E 003°60'  

Dump ship's entire track history